Time;durP1;ratioP1;P1;durP2;ratioP2;P2;SDS_P1;SDS_P2;PMS_P1;PMS_P2;Temp;Humidity;BMP_temperature;BMP_pressure;BME280_temperature;BME280_humidity;BME280_pressure;Samples;Min_cycle;Max_cycle;Signal;HPM_P1;HPM_P2
2023/05/03 00:00:01;;;;;;;7.60;6.80;;;9.40;99.90;;;;;;5015824;28;20431;-85
2023/05/03 00:02:27;;;;;;;8.40;7.53;;;9.40;99.90;;;;;;5011877;28;20995;-83
2023/05/03 00:04:53;;;;;;;8.30;7.60;;;9.30;99.90;;;;;;5011867;28;20505;-85
2023/05/03 00:07:20;;;;;;;8.10;7.40;;;9.30;99.90;;;;;;5013489;28;20574;-85
2023/05/03 00:09:48;;;;;;;9.40;8.30;;;9.30;99.90;;;;;;5011096;28;20547;-85
2023/05/03 00:12:14;;;;;;;8.63;7.40;;;9.30;99.90;;;;;;5012713;28;20418;-84
2023/05/03 00:14:40;;;;;;;8.17;7.27;;;9.30;99.90;;;;;;5011517;28;20461;-86
2023/05/03 00:17:06;;;;;;;8.40;7.17;;;9.30;99.90;;;;;;5012560;28;20509;-87
2023/05/03 00:19:32;;;;;;;8.07;7.20;;;9.20;99.90;;;;;;5012425;28;20179;-82
2023/05/03 00:22:00;;;;;;;8.00;7.30;;;9.20;99.90;;;;;;5010929;28;20191;-86
2023/05/03 00:24:26;;;;;;;8.93;7.30;;;9.20;99.90;;;;;;5011102;28;20552;-87
2023/05/03 00:26:52;;;;;;;8.20;7.10;;;9.10;99.90;;;;;;5011448;28;20485;-87
2023/05/03 00:29:20;;;;;;;7.40;6.70;;;9.10;99.90;;;;;;5013652;28;20536;-82
2023/05/03 00:31:45;;;;;;;7.43;6.73;;;9.10;99.90;;;;;;5010968;28;20175;-84
2023/05/03 00:34:11;;;;;;;7.40;6.80;;;9.10;99.90;;;;;;5010726;28;20516;-84
2023/05/03 00:36:37;;;;;;;7.37;6.50;;;9.10;99.90;;;;;;5010482;28;20194;-85
2023/05/03 00:39:02;;;;;;;10.60;7.77;;;9.00;99.90;;;;;;5012318;28;20210;-86
2023/05/03 00:41:28;;;;;;;8.70;7.87;;;9.00;99.90;;;;;;5011373;28;20317;-86
2023/05/03 00:43:54;;;;;;;7.83;6.80;;;9.00;99.90;;;;;;5011188;28;20294;-86
2023/05/03 00:46:20;;;;;;;7.90;7.20;;;8.90;99.90;;;;;;5011304;28;20649;-84
2023/05/03 00:48:48;;;;;;;8.27;7.53;;;8.90;99.90;;;;;;5012537;28;20186;-86
2023/05/03 00:51:14;;;;;;;7.93;7.17;;;8.90;99.90;;;;;;5012461;28;20501;-88
2023/05/03 00:53:43;;;;;;;8.77;7.87;;;8.80;99.90;;;;;;5010987;28;20504;-85
2023/05/03 00:56:10;;;;;;;8.00;7.30;;;8.80;99.90;;;;;;5013727;28;20812;-84
2023/05/03 00:58:39;;;;;;;8.80;8.00;;;8.80;99.90;;;;;;5012330;28;20450;-84
2023/05/03 01:01:06;;;;;;;10.23;7.73;;;8.80;99.90;;;;;;4996288;28;20493;-84
2023/05/03 01:03:36;;;;;;;9.97;8.97;;;8.80;99.90;;;;;;4993701;28;20414;-80
2023/05/03 01:06:24;;;;;;;8.97;8.07;;;8.70;99.90;;;;;;4993798;28;20422;-84
2023/05/03 01:09:01;;;;;;;11.83;8.90;;;8.70;99.90;;;;;;4995528;28;20941;-84
2023/05/03 01:11:40;;;;;;;9.97;8.93;;;8.60;99.90;;;;;;5012147;28;20512;-84
2023/05/03 01:14:34;;;;;;;10.00;8.90;;;8.60;99.90;;;;;;5009033;28;20988;-83
2023/05/03 01:17:07;;;;;;;9.07;8.20;;;8.50;99.90;;;;;;4986064;28;20443;-84
2023/05/03 01:19:38;;;;;;;11.23;8.47;;;8.50;99.90;;;;;;4993013;28;20555;-81
2023/05/03 01:22:21;;;;;;;8.87;8.07;;;8.50;99.90;;;;;;4992992;28;20410;-84
2023/05/03 01:24:53;;;;;;;9.77;8.10;;;8.50;99.90;;;;;;4992507;28;20399;-84
2023/05/03 01:27:19;;;;;;;10.73;8.97;;;8.40;99.90;;;;;;5008287;28;20445;-84
2023/05/03 01:29:45;;;;;;;9.33;8.43;;;8.40;99.90;;;;;;5012047;28;20438;-85
2023/05/03 01:32:22;;;;;;;8.90;8.10;;;8.40;99.90;;;;;;5012790;28;20268;-85
2023/05/03 01:34:47;;;;;;;9.63;8.63;;;8.30;99.90;;;;;;5012412;28;20446;-86
2023/05/03 01:37:13;;;;;;;9.70;8.77;;;8.40;99.90;;;;;;5012962;28;20425;-86
2023/05/03 01:39:49;;;;;;;11.60;7.93;;;8.40;99.90;;;;;;5012242;28;20638;-86
2023/05/03 01:42:16;;;;;;;8.40;7.60;;;8.30;99.90;;;;;;5011850;28;20183;-86
2023/05/03 01:44:43;;;;;;;9.23;8.37;;;8.30;99.90;;;;;;5011822;28;20426;-85
2023/05/03 01:47:09;;;;;;;10.07;9.07;;;8.30;99.90;;;;;;5012589;28;20402;-85
2023/05/03 01:49:35;;;;;;;8.63;7.80;;;8.30;99.90;;;;;;5012314;28;20755;-80
2023/05/03 01:52:01;;;;;;;9.20;8.30;;;8.30;99.90;;;;;;5011082;28;20422;-85
2023/05/03 01:54:26;;;;;;;10.53;9.53;;;8.30;99.90;;;;;;5012720;28;20800;-85
2023/05/03 01:56:52;;;;;;;9.10;7.97;;;8.30;99.90;;;;;;5011917;28;20190;-88
2023/05/03 01:59:18;;;;;;;9.23;8.43;;;8.20;99.90;;;;;;5012735;28;20225;-87
2023/05/03 02:01:43;;;;;;;9.93;9.03;;;8.20;99.90;;;;;;5011307;28;20183;-87
2023/05/03 02:04:10;;;;;;;9.17;8.23;;;8.20;99.90;;;;;;5012780;28;20175;-86
2023/05/03 02:06:35;;;;;;;8.20;7.27;;;8.20;99.90;;;;;;5011196;28;20175;-81
2023/05/03 02:09:01;;;;;;;8.30;7.60;;;8.20;99.90;;;;;;5012151;28;20413;-84
2023/05/03 02:11:27;;;;;;;11.93;8.20;;;8.20;99.90;;;;;;5011361;28;20453;-84
2023/05/03 02:13:53;;;;;;;10.87;8.30;;;8.10;99.90;;;;;;5011600;28;20457;-84
2023/05/03 02:16:19;;;;;;;13.00;8.27;;;8.10;99.90;;;;;;5012184;28;20584;-84
2023/05/03 02:18:45;;;;;;;9.80;8.13;;;8.10;99.90;;;;;;5011082;28;20664;-83
2023/05/03 02:21:12;;;;;;;8.87;7.97;;;8.10;99.90;;;;;;5012413;28;20501;-85
2023/05/03 02:23:38;;;;;;;10.33;8.30;;;8.10;99.90;;;;;;5012164;28;20409;-81
2023/05/03 02:26:04;;;;;;;8.40;7.50;;;8.10;99.90;;;;;;5010781;28;20414;-86
2023/05/03 02:28:30;;;;;;;8.50;7.60;;;8.00;99.90;;;;;;5011959;28;20406;-86
2023/05/03 02:30:55;;;;;;;10.50;8.20;;;8.00;99.90;;;;;;5011612;28;20405;-86
2023/05/03 02:33:21;;;;;;;9.83;8.00;;;8.00;99.90;;;;;;5012116;28;20207;-88
2023/05/03 02:35:47;;;;;;;8.73;7.93;;;8.10;99.90;;;;;;5014705;28;20187;-87
2023/05/03 02:38:13;;;;;;;7.67;6.97;;;8.00;99.90;;;;;;5016221;28;20409;-86
2023/05/03 02:40:38;;;;;;;8.90;7.53;;;8.00;99.90;;;;;;5015857;28;20171;-82
2023/05/03 02:43:04;;;;;;;9.30;8.40;;;8.00;99.90;;;;;;5011017;28;20283;-86
2023/05/03 02:45:30;;;;;;;8.00;7.30;;;8.00;99.90;;;;;;5014983;28;20202;-86
2023/05/03 02:47:55;;;;;;;10.30;7.70;;;7.90;99.90;;;;;;5014688;28;20175;-86
2023/05/03 02:50:21;;;;;;;7.63;6.93;;;7.90;99.90;;;;;;5015824;28;20226;-85
2023/05/03 02:52:47;;;;;;;8.07;7.37;;;7.90;99.90;;;;;;5014915;28;20187;-85
2023/05/03 02:55:13;;;;;;;8.97;7.97;;;7.90;99.90;;;;;;5018086;28;20455;-85
2023/05/03 02:57:39;;;;;;;9.73;7.83;;;7.90;99.90;;;;;;5016975;28;20182;-80
2023/05/03 03:00:05;;;;;;;11.07;7.67;;;7.90;99.90;;;;;;5015201;28;20174;-84
2023/05/03 03:02:31;;;;;;;9.97;8.67;;;7.80;99.90;;;;;;5015666;28;20401;-83
2023/05/03 03:04:57;;;;;;;8.37;7.57;;;7.80;99.90;;;;;;5014502;28;20416;-84
2023/05/03 03:07:23;;;;;;;10.23;9.13;;;7.80;99.90;;;;;;5014694;28;20767;-78
2023/05/03 03:09:49;;;;;;;10.20;8.77;;;7.80;99.90;;;;;;5004214;28;20627;-76
2023/05/03 03:12:15;;;;;;;8.73;7.93;;;7.70;99.90;;;;;;5012423;28;20265;-78
2023/05/03 03:14:41;;;;;;;9.43;8.33;;;7.70;99.90;;;;;;5013786;28;20459;-76
2023/05/03 03:17:10;;;;;;;9.73;8.70;;;7.60;99.90;;;;;;5015635;28;20507;-78
2023/05/03 03:19:36;;;;;;;9.67;8.53;;;7.60;99.90;;;;;;5013713;28;20698;-76
2023/05/03 03:22:02;;;;;;;9.23;8.33;;;7.60;99.90;;;;;;5014391;28;20493;-77
2023/05/03 03:24:28;;;;;;;10.30;7.97;;;7.60;99.90;;;;;;5012958;28;20187;-77
2023/05/03 03:26:54;;;;;;;11.77;8.53;;;7.50;99.90;;;;;;5012478;28;20258;-77
2023/05/03 03:29:19;;;;;;;8.43;7.63;;;7.50;99.90;;;;;;5014548;28;20905;-77
2023/05/03 03:31:45;;;;;;;9.30;8.40;;;7.60;99.90;;;;;;5013430;28;20183;-76
2023/05/03 03:34:12;;;;;;;10.00;8.63;;;7.50;99.90;;;;;;5015220;28;20508;-77
2023/05/03 03:36:38;;;;;;;9.80;8.50;;;7.50;99.90;;;;;;5015116;28;20186;-77
2023/05/03 03:39:04;;;;;;;9.20;8.20;;;7.50;99.90;;;;;;5014386;28;20436;-76
2023/05/03 03:41:32;;;;;;;10.20;8.03;;;7.50;99.90;;;;;;5013007;28;20459;-76
2023/05/03 03:43:57;;;;;;;11.37;10.43;;;7.50;99.90;;;;;;5013551;28;20433;-76
2023/05/03 03:46:23;;;;;;;11.63;10.63;;;7.50;99.90;;;;;;5014317;28;20442;-78
2023/05/03 03:48:49;;;;;;;8.57;7.20;;;7.50;99.90;;;;;;5013859;28;20175;-77
2023/05/03 03:51:15;;;;;;;11.37;9.10;;;7.50;99.90;;;;;;5015032;28;20798;-76
2023/05/03 03:53:41;;;;;;;11.37;9.20;;;7.40;99.90;;;;;;5013735;28;20472;-76
2023/05/03 03:56:07;;;;;;;12.40;9.03;;;7.40;99.90;;;;;;5014348;28;20444;-76
2023/05/03 03:58:33;;;;;;;11.03;9.93;;;7.30;99.90;;;;;;5014887;28;20880;-76
2023/05/03 04:00:59;;;;;;;11.00;9.67;;;7.30;99.90;;;;;;5011535;28;20404;-76
2023/05/03 04:03:25;;;;;;;12.20;9.40;;;7.30;99.90;;;;;;5014651;28;20413;-77
2023/05/03 04:05:51;;;;;;;8.93;8.03;;;7.40;99.90;;;;;;5012513;28;20523;-82
2023/05/03 04:08:17;;;;;;;10.13;9.10;;;7.30;99.90;;;;;;5015143;28;20509;-81
2023/05/03 04:10:43;;;;;;;11.60;8.37;;;7.30;99.90;;;;;;5012140;28;20187;-76
2023/05/03 04:13:09;;;;;;;13.30;9.77;;;7.30;99.90;;;;;;5014711;28;21008;-82
2023/05/03 04:15:35;;;;;;;11.30;10.20;;;7.30;99.90;;;;;;5014991;28;20394;-81
2023/05/03 04:18:01;;;;;;;11.97;10.80;;;7.30;99.90;;;;;;5014227;28;20424;-81
2023/05/03 04:20:26;;;;;;;12.13;10.93;;;7.40;99.90;;;;;;5013087;28;20416;-80
2023/05/03 04:22:52;;;;;;;10.67;9.57;;;7.30;99.90;;;;;;5013880;28;20426;-82
2023/05/03 04:25:18;;;;;;;12.20;9.50;;;7.30;99.90;;;;;;5014920;28;20405;-82
2023/05/03 04:27:44;;;;;;;12.13;8.90;;;7.30;99.90;;;;;;5014578;28;20182;-78
2023/05/03 04:30:13;;;;;;;10.30;9.30;;;7.30;99.90;;;;;;5014376;28;20178;-82
2023/05/03 04:32:41;;;;;;;10.23;8.73;;;7.30;99.90;;;;;;5011152;28;20431;-82
2023/05/03 04:35:11;;;;;;;9.77;8.30;;;7.30;99.90;;;;;;5013527;28;20423;-82
2023/05/03 04:37:38;;;;;;;15.97;9.73;;;7.40;99.90;;;;;;5014202;28;20779;-82
2023/05/03 04:40:08;;;;;;;10.93;9.40;;;7.40;99.90;;;;;;5013677;28;20426;-82
2023/05/03 04:42:35;;;;;;;10.93;9.83;;;7.40;99.90;;;;;;5012885;28;20936;-83
2023/05/03 04:45:05;;;;;;;14.47;10.87;;;7.40;99.90;;;;;;5012083;28;20492;-82
2023/05/03 04:47:32;;;;;;;10.70;8.90;;;7.40;99.90;;;;;;5010386;28;20756;-83
2023/05/03 04:49:58;;;;;;;10.53;9.53;;;7.40;99.90;;;;;;5011116;28;20511;-83
2023/05/03 04:52:26;;;;;;;15.97;11.23;;;7.40;99.90;;;;;;5014000;28;20387;-82
2023/05/03 04:54:53;;;;;;;9.87;8.90;;;7.40;99.90;;;;;;5013164;28;20467;-83
2023/05/03 04:57:19;;;;;;;13.30;9.63;;;7.40;99.90;;;;;;5013769;28;20182;-83
2023/05/03 04:59:45;;;;;;;13.50;10.80;;;7.40;99.90;;;;;;5011940;28;20423;-83
2023/05/03 05:02:10;;;;;;;14.70;9.57;;;7.40;99.90;;;;;;5009950;28;20433;-82
2023/05/03 05:04:36;;;;;;;13.20;9.53;;;7.40;99.90;;;;;;5005920;28;20476;-83
2023/05/03 05:07:02;;;;;;;12.07;10.80;;;7.40;99.90;;;;;;5012568;28;20515;-82
2023/05/03 05:09:29;;;;;;;16.33;10.30;;;7.40;99.90;;;;;;5011424;28;20221;-82
2023/05/03 05:11:56;;;;;;;11.63;10.47;;;7.40;99.90;;;;;;5011776;28;20185;-82
2023/05/03 05:14:22;;;;;;;12.60;10.50;;;7.50;99.90;;;;;;5013376;28;20441;-82
2023/05/03 05:16:48;;;;;;;14.97;11.70;;;7.50;99.90;;;;;;5012889;28;20412;-78
2023/05/03 05:19:15;;;;;;;15.40;11.40;;;7.50;99.90;;;;;;5013496;28;20395;-82
2023/05/03 05:21:41;;;;;;;12.20;10.90;;;7.60;99.90;;;;;;5013132;28;20418;-82
2023/05/03 05:24:06;;;;;;;13.00;11.30;;;7.60;99.90;;;;;;5003722;28;20875;-82
2023/05/03 05:26:32;;;;;;;16.40;12.97;;;7.50;99.90;;;;;;5011126;28;20201;-84
2023/05/03 05:28:58;;;;;;;16.23;11.50;;;7.50;99.90;;;;;;5012759;28;20188;-84
2023/05/03 05:31:24;;;;;;;12.30;10.43;;;7.50;99.90;;;;;;5013414;28;20171;-82
2023/05/03 05:33:49;;;;;;;11.90;10.50;;;7.50;99.90;;;;;;5012717;28;20856;-78
2023/05/03 05:36:16;;;;;;;13.07;10.63;;;7.50;99.90;;;;;;5010608;28;20181;-82
2023/05/03 05:38:42;;;;;;;11.27;10.10;;;7.50;99.90;;;;;;5005552;28;20926;-75
2023/05/03 05:41:08;;;;;;;13.23;11.83;;;7.60;99.90;;;;;;5005847;28;20435;-75
2023/05/03 05:43:34;;;;;;;13.30;11.60;;;7.70;99.90;;;;;;5008979;28;20438;-75
2023/05/03 05:46:00;;;;;;;14.70;11.00;;;7.70;99.90;;;;;;5001704;28;20434;-75
2023/05/03 05:48:26;;;;;;;14.17;12.00;;;7.80;99.90;;;;;;5009308;28;20430;-76
2023/05/03 05:50:52;;;;;;;13.67;12.30;;;7.80;99.90;;;;;;4996651;28;20542;-74
2023/05/03 05:53:17;;;;;;;15.63;12.30;;;7.90;99.90;;;;;;5011595;28;20250;-75
2023/05/03 05:55:43;;;;;;;15.87;14.47;;;8.00;99.90;;;;;;5012503;28;20197;-75
2023/05/03 05:58:11;;;;;;;15.50;11.13;;;8.10;99.90;;;;;;5013231;28;20313;-75
2023/05/03 06:00:37;;;;;;;12.57;10.93;;;8.10;99.90;;;;;;5010553;28;20179;-74
2023/05/03 06:03:04;;;;;;;16.97;15.17;;;8.20;99.90;;;;;;5011388;28;20473;-74
2023/05/03 06:05:30;;;;;;;14.03;12.63;;;8.30;99.90;;;;;;5010734;28;20410;-74
2023/05/03 06:07:55;;;;;;;14.50;12.07;;;8.30;99.90;;;;;;5011594;28;20418;-74
2023/05/03 06:10:21;;;;;;;16.23;11.27;;;8.40;99.90;;;;;;5011908;28;20916;-75
2023/05/03 06:12:47;;;;;;;18.30;13.00;;;8.40;99.90;;;;;;5010288;28;20179;-75
2023/05/03 06:15:13;;;;;;;12.60;11.30;;;8.50;99.90;;;;;;5008897;28;20183;-75
2023/05/03 06:17:39;;;;;;;12.60;11.20;;;8.40;99.90;;;;;;5009724;28;20440;-75
2023/05/03 06:20:05;;;;;;;15.73;12.40;;;8.50;99.90;;;;;;5007971;28;20240;-78
2023/05/03 06:22:31;;;;;;;11.80;10.60;;;8.50;99.90;;;;;;5008607;28;20183;-72
2023/05/03 06:24:57;;;;;;;13.93;12.47;;;8.60;99.90;;;;;;5011603;28;20417;-73
2023/05/03 06:27:23;;;;;;;12.77;10.90;;;8.70;99.90;;;;;;5008155;28;20179;-74
2023/05/03 06:29:49;;;;;;;14.67;13.30;;;8.70;99.90;;;;;;5012489;28;20206;-77
2023/05/03 06:32:15;;;;;;;11.50;9.77;;;8.50;99.90;;;;;;5011506;28;20827;-77
2023/05/03 06:34:41;;;;;;;10.83;9.57;;;8.40;99.90;;;;;;5012191;28;20252;-76
2023/05/03 06:37:06;;;;;;;13.17;10.60;;;8.50;99.90;;;;;;5011130;28;20175;-77
2023/05/03 06:39:34;;;;;;;13.03;9.20;;;8.60;99.90;;;;;;5011103;28;20270;-79
2023/05/03 06:42:01;;;;;;;14.07;9.57;;;8.70;99.90;;;;;;5026656;28;20586;-80
2023/05/03 06:44:27;;;;;;;11.40;10.20;;;8.90;99.90;;;;;;5012505;28;20406;-77
2023/05/03 06:46:52;;;;;;;12.70;11.43;;;8.90;99.90;;;;;;5011904;28;20485;-75
2023/05/03 06:49:18;;;;;;;13.37;11.10;;;9.00;99.90;;;;;;5003354;28;20246;-75
2023/05/03 06:51:44;;;;;;;14.87;10.80;;;8.90;99.90;;;;;;5005755;28;21111;-76
2023/05/03 06:54:11;;;;;;;12.27;10.97;;;8.80;99.90;;;;;;5002918;28;20325;-78
2023/05/03 06:56:37;;;;;;;13.67;10.60;;;8.90;99.90;;;;;;4992351;28;20915;-79
2023/05/03 06:59:03;;;;;;;12.27;10.80;;;9.10;99.90;;;;;;5004815;28;20187;-76
2023/05/03 07:01:31;;;;;;;11.30;9.60;;;9.20;99.90;;;;;;5011926;28;20452;-76
2023/05/03 07:03:56;;;;;;;10.00;9.10;;;9.20;99.90;;;;;;5011200;28;20420;-74
2023/05/03 07:06:23;;;;;;;12.07;9.60;;;9.40;99.90;;;;;;5011925;28;20505;-73
2023/05/03 07:08:53;;;;;;;10.23;9.23;;;9.50;99.90;;;;;;5011679;28;20175;-75
2023/05/03 07:11:23;;;;;;;12.90;9.60;;;9.70;99.90;;;;;;5012050;28;20752;-75
2023/05/03 07:13:50;;;;;;;9.57;8.67;;;9.80;99.90;;;;;;5011869;28;20450;-75
2023/05/03 07:16:16;;;;;;;11.80;10.70;;;9.90;99.90;;;;;;5007562;28;20435;-75
2023/05/03 07:18:42;;;;;;;10.27;9.37;;;9.60;99.90;;;;;;5009566;28;20519;-75
2023/05/03 07:21:08;;;;;;;10.80;9.43;;;9.50;99.90;;;;;;5011302;28;20470;-75
2023/05/03 07:23:33;;;;;;;12.20;8.40;;;9.60;99.90;;;;;;5012576;28;20197;-75
2023/05/03 07:25:59;;;;;;;11.20;7.70;;;9.70;99.90;;;;;;5011786;28;20580;-76
2023/05/03 07:28:25;;;;;;;10.27;9.20;;;9.90;99.90;;;;;;5015756;28;20176;-76
2023/05/03 07:30:51;;;;;;;11.90;8.63;;;10.00;99.90;;;;;;5015156;28;20413;-75
2023/05/03 07:33:17;;;;;;;9.07;8.17;;;10.10;99.90;;;;;;5014259;28;20720;-76
2023/05/03 07:35:45;;;;;;;10.50;7.63;;;10.30;99.90;;;;;;5013781;28;20813;-75
2023/05/03 07:38:12;;;;;;;8.90;8.00;;;10.50;99.90;;;;;;5014096;28;20413;-75
2023/05/03 07:40:37;;;;;;;10.30;8.27;;;10.70;99.90;;;;;;5014875;28;20443;-75
2023/05/03 07:43:04;;;;;;;14.33;9.70;;;10.90;99.90;;;;;;5014141;28;20413;-76
2023/05/03 07:45:32;;;;;;;8.00;6.97;;;11.00;99.90;;;;;;5013460;28;20890;-76
2023/05/03 07:47:57;;;;;;;9.13;7.63;;;11.20;99.90;;;;;;5013330;28;20989;-75
2023/05/03 07:50:24;;;;;;;13.10;8.03;;;11.40;99.90;;;;;;5004256;28;20556;-77
2023/05/03 07:52:50;;;;;;;7.60;6.90;;;11.60;99.90;;;;;;5009288;28;20436;-77
2023/05/03 07:55:18;;;;;;;8.30;7.60;;;11.80;99.40;;;;;;5010242;28;20444;-76
2023/05/03 07:57:44;;;;;;;8.43;6.80;;;12.00;98.20;;;;;;5012816;28;20824;-77
2023/05/03 08:00:11;;;;;;;8.67;7.00;;;12.10;98.60;;;;;;5012426;28;20435;-81
2023/05/03 08:02:37;;;;;;;7.43;6.80;;;12.30;96.80;;;;;;4997219;28;20423;-82
2023/05/03 08:05:06;;;;;;;6.90;6.30;;;12.40;95.70;;;;;;5001090;28;20418;-82
2023/05/03 08:07:32;;;;;;;8.03;7.30;;;12.60;93.90;;;;;;5014249;28;20909;-81
2023/05/03 08:09:59;;;;;;;7.10;6.50;;;12.70;94.20;;;;;;5012559;28;20423;-78
2023/05/03 08:12:25;;;;;;;6.73;6.23;;;12.80;94.00;;;;;;5014849;28;20169;-81
2023/05/03 08:14:54;;;;;;;9.17;7.20;;;12.90;93.10;;;;;;5013753;28;20499;-81
2023/05/03 08:17:21;;;;;;;8.90;7.97;;;13.00;92.70;;;;;;5012441;28;20498;-81
2023/05/03 08:19:47;;;;;;;7.73;6.00;;;13.10;92.80;;;;;;5014855;28;20420;-81
2023/05/03 08:22:13;;;;;;;6.90;6.20;;;13.00;90.40;;;;;;5013485;28;20907;-81
2023/05/03 08:24:41;;;;;;;5.50;5.00;;;13.10;92.90;;;;;;5007978;28;20417;-81
2023/05/03 08:27:08;;;;;;;6.67;6.07;;;13.30;92.30;;;;;;4993911;28;20403;-82
2023/05/03 08:29:36;;;;;;;5.77;5.17;;;13.30;91.80;;;;;;4994810;28;20408;-82
2023/05/03 08:32:03;;;;;;;7.27;5.83;;;13.50;91.40;;;;;;4993877;28;20411;-81
2023/05/03 08:34:29;;;;;;;7.00;6.37;;;13.50;89.50;;;;;;4994603;28;20456;-82
2023/05/03 08:36:56;;;;;;;6.30;5.80;;;13.70;90.70;;;;;;4994577;28;20422;-82
2023/05/03 08:39:23;;;;;;;6.50;5.90;;;13.70;91.00;;;;;;4993747;28;20417;-81
2023/05/03 08:41:49;;;;;;;6.47;5.87;;;13.90;90.70;;;;;;4994590;28;20405;-82
2023/05/03 08:44:24;;;;;;;9.90;6.47;;;14.00;90.00;;;;;;4996790;28;20515;-82
2023/05/03 08:46:50;;;;;;;6.37;5.77;;;14.20;90.10;;;;;;5012897;28;20392;-82
2023/05/03 08:49:17;;;;;;;6.50;6.00;;;14.40;90.40;;;;;;5013251;28;20406;-83
2023/05/03 08:51:48;;;;;;;7.30;6.80;;;14.60;90.40;;;;;;4996265;28;20231;-82
2023/05/03 08:54:19;;;;;;;6.80;6.20;;;14.70;87.40;;;;;;5013279;28;20508;-81
2023/05/03 08:56:46;;;;;;;8.07;7.27;;;14.70;86.70;;;;;;5014065;28;20401;-82
2023/05/03 08:59:12;;;;;;;6.77;5.93;;;14.90;86.50;;;;;;5011956;28;20420;-82
2023/05/03 09:01:39;;;;;;;7.30;5.90;;;15.00;87.20;;;;;;5014022;28;20496;-82
2023/05/03 09:04:06;;;;;;;6.70;6.20;;;15.10;84.30;;;;;;5010962;28;20524;-81
2023/05/03 09:06:34;;;;;;;6.93;6.53;;;15.10;87.30;;;;;;5013939;28;20431;-82
2023/05/03 09:09:01;;;;;;;6.87;6.37;;;15.20;85.10;;;;;;5013821;28;20458;-82
2023/05/03 09:11:30;;;;;;;6.97;6.27;;;15.20;84.40;;;;;;5014712;28;20727;-81
2023/05/03 09:14:11;;;;;;;6.80;6.20;;;15.20;84.80;;;;;;5014153;28;20469;-82
2023/05/03 09:16:38;;;;;;;6.33;5.73;;;15.30;84.60;;;;;;5014280;28;20797;-82
2023/05/03 09:19:08;;;;;;;8.00;6.60;;;15.40;87.20;;;;;;5029117;28;20785;-81
2023/05/03 09:21:35;;;;;;;7.17;6.47;;;15.40;82.00;;;;;;5014754;28;20444;-82
2023/05/03 09:24:05;;;;;;;6.90;6.30;;;15.40;82.00;;;;;;5014528;28;20499;-78
2023/05/03 09:26:34;;;;;;;8.40;7.80;;;15.50;82.40;;;;;;5014312;28;20409;-81
2023/05/03 09:29:01;;;;;;;6.70;6.20;;;15.50;79.10;;;;;;5013803;28;20436;-82
2023/05/03 09:31:29;;;;;;;7.47;6.87;;;15.50;81.20;;;;;;5012297;28;20421;-81
2023/05/03 09:33:55;;;;;;;7.80;6.30;;;15.70;82.20;;;;;;5012984;28;20467;-81
2023/05/03 09:36:21;;;;;;;7.27;6.77;;;15.80;78.40;;;;;;5012514;28;20449;-81
2023/05/03 09:38:48;;;;;;;6.57;5.93;;;15.90;80.90;;;;;;5012877;28;20416;-82
2023/05/03 09:41:15;;;;;;;6.50;5.83;;;16.00;84.20;;;;;;5012782;28;20414;-82
2023/05/03 09:43:51;;;;;;;6.17;5.67;;;16.10;81.20;;;;;;5010647;28;20453;-81
2023/05/03 09:46:18;;;;;;;6.10;5.60;;;16.20;78.60;;;;;;5008107;28;20421;-82
2023/05/03 09:48:44;;;;;;;6.77;6.17;;;16.30;78.00;;;;;;4992756;28;20442;-81
2023/05/03 09:51:11;;;;;;;5.67;5.17;;;16.40;76.80;;;;;;4992760;28;20455;-81
2023/05/03 09:53:40;;;;;;;5.67;5.17;;;16.20;73.70;;;;;;4992956;28;20525;-82
2023/05/03 09:56:11;;;;;;;6.93;5.60;;;16.20;77.10;;;;;;4993064;28;20426;-82
2023/05/03 09:58:42;;;;;;;6.10;5.20;;;16.30;77.40;;;;;;5002263;28;20825;-81
2023/05/03 10:01:09;;;;;;;6.77;6.13;;;16.50;75.30;;;;;;5012789;28;20402;-76
2023/05/03 10:03:42;;;;;;;6.03;5.50;;;16.60;79.60;;;;;;5012445;28;20414;-76
2023/05/03 10:06:26;;;;;;;6.00;5.50;;;16.70;77.10;;;;;;5012292;28;20413;-77
2023/05/03 10:09:20;;;;;;;5.83;5.33;;;16.90;81.10;;;;;;5013020;28;20410;-76
2023/05/03 10:11:50;;;;;;;6.33;5.90;;;17.00;75.80;;;;;;5011817;28;20435;-77
2023/05/03 10:14:16;;;;;;;7.03;5.83;;;17.10;78.60;;;;;;5011976;28;20533;-76
2023/05/03 10:16:46;;;;;;;5.50;5.10;;;17.20;75.70;;;;;;5012573;28;20504;-76
2023/05/03 10:19:31;;;;;;;6.50;5.87;;;17.20;77.90;;;;;;5011785;28;20544;-76
2023/05/03 10:22:08;;;;;;;6.23;5.50;;;17.30;78.60;;;;;;5012371;28;20418;-76
2023/05/03 10:24:35;;;;;;;5.90;5.50;;;17.40;74.80;;;;;;5011420;28;20458;-77
2023/05/03 10:27:05;;;;;;;6.13;5.73;;;17.40;76.20;;;;;;5012081;28;20457;-76
2023/05/03 10:29:44;;;;;;;7.73;7.20;;;17.50;76.50;;;;;;4992582;28;20903;-77
2023/05/03 10:32:33;;;;;;;8.70;7.80;;;17.60;76.40;;;;;;4992347;28;20415;-77
2023/05/03 10:35:08;;;;;;;7.07;6.40;;;17.60;71.80;;;;;;4992855;28;20462;-77
2023/05/03 10:37:35;;;;;;;6.83;6.33;;;17.70;75.70;;;;;;4992604;28;20398;-76
2023/05/03 10:40:17;;;;;;;6.57;5.97;;;17.80;75.60;;;;;;4992825;28;20423;-77
2023/05/03 10:42:55;;;;;;;5.83;5.37;;;17.80;74.30;;;;;;5008012;28;20520;-77
2023/05/03 10:45:28;;;;;;;7.23;6.57;;;17.90;70.50;;;;;;5011572;28;20500;-76
2023/05/03 10:48:12;;;;;;;6.60;6.00;;;18.00;69.30;;;;;;5011756;28;20488;-77
2023/05/03 10:50:38;;;;;;;6.53;5.80;;;18.00;71.30;;;;;;5008575;28;20528;-81
2023/05/03 10:53:04;;;;;;;6.10;5.50;;;18.10;72.80;;;;;;5012112;28;20459;-81
2023/05/03 10:55:31;;;;;;;6.70;6.00;;;18.20;72.60;;;;;;5012676;28;20421;-82
2023/05/03 10:57:58;;;;;;;6.50;6.10;;;18.30;73.70;;;;;;5013206;28;20430;-81
2023/05/03 11:00:37;;;;;;;5.93;5.37;;;18.20;67.80;;;;;;5015459;28;20406;-82
2023/05/03 11:03:24;;;;;;;6.43;5.80;;;18.40;72.40;;;;;;5014689;28;20905;-81
2023/05/03 11:05:51;;;;;;;5.60;5.30;;;18.50;71.40;;;;;;5016091;28;20472;-83
2023/05/03 11:08:21;;;;;;;7.33;6.63;;;18.60;73.30;;;;;;5015118;28;20406;-81
2023/05/03 11:10:49;;;;;;;10.13;7.40;;;18.60;69.50;;;;;;5015608;28;20485;-81
2023/05/03 11:13:15;;;;;;;10.83;7.17;;;18.70;71.90;;;;;;5014988;28;20461;-81
2023/05/03 11:15:42;;;;;;;6.20;5.80;;;18.60;71.20;;;;;;5014654;28;20493;-82
2023/05/03 11:18:10;;;;;;;8.63;7.30;;;18.70;74.40;;;;;;5014576;28;20217;-80
2023/05/03 11:20:38;;;;;;;6.87;6.27;;;18.70;70.60;;;;;;5015131;28;20459;-83
2023/05/03 11:23:06;;;;;;;9.00;7.30;;;18.80;72.50;;;;;;5015134;28;20461;-82
2023/05/03 11:25:32;;;;;;;6.90;6.40;;;18.80;69.40;;;;;;5014667;28;20171;-82
2023/05/03 11:28:05;;;;;;;7.80;6.93;;;18.80;71.20;;;;;;5013921;28;20429;-82
2023/05/03 11:30:36;;;;;;;10.80;9.67;;;18.90;72.80;;;;;;5013505;28;20901;-82
2023/05/03 11:33:05;;;;;;;6.30;5.70;;;19.00;72.40;;;;;;5015033;28;20402;-82
2023/05/03 11:35:31;;;;;;;5.70;5.30;;;19.20;71.40;;;;;;5014382;28;20436;-82
2023/05/03 11:37:58;;;;;;;6.20;5.60;;;19.20;71.00;;;;;;5015029;28;20563;-82
2023/05/03 11:40:24;;;;;;;6.33;5.73;;;19.10;70.10;;;;;;5013975;28;20909;-82
2023/05/03 11:42:54;;;;;;;9.60;8.70;;;19.10;69.50;;;;;;5013583;28;20414;-82
2023/05/03 11:45:22;;;;;;;9.73;8.10;;;19.20;67.60;;;;;;5013061;28;20736;-82
2023/05/03 11:47:48;;;;;;;7.00;6.40;;;19.30;67.80;;;;;;5014712;28;20402;-82
2023/05/03 11:50:14;;;;;;;6.80;6.20;;;19.40;65.70;;;;;;5013166;28;20465;-81
2023/05/03 11:52:40;;;;;;;15.13;9.67;;;19.40;65.00;;;;;;5013573;28;20426;-82
2023/05/03 11:55:07;;;;;;;6.23;5.73;;;19.60;67.20;;;;;;5014620;28;20211;-82
2023/05/03 11:57:32;;;;;;;5.93;5.53;;;19.50;67.70;;;;;;5009687;28;20410;-82
2023/05/03 12:00:16;;;;;;;6.90;6.40;;;19.50;67.60;;;;;;5011950;28;20492;-82
2023/05/03 12:02:47;;;;;;;7.00;6.60;;;19.50;62.90;;;;;;5014363;28;20185;-81
2023/05/03 12:05:14;;;;;;;7.57;6.80;;;19.60;64.90;;;;;;5003273;28;20835;-81
2023/05/03 12:07:40;;;;;;;6.30;5.77;;;19.70;67.50;;;;;;5006995;28;20422;-81
2023/05/03 12:10:17;;;;;;;8.30;6.00;;;19.40;61.10;;;;;;5013465;28;20890;-82
2023/05/03 12:12:56;;;;;;;6.77;6.20;;;19.40;63.30;;;;;;5014368;28;20166;-81
2023/05/03 12:15:32;;;;;;;7.57;6.87;;;19.30;65.30;;;;;;5013393;28;20418;-81
2023/05/03 12:18:00;;;;;;;7.20;6.60;;;19.30;64.50;;;;;;5014333;28;20406;-81
2023/05/03 12:20:30;;;;;;;7.90;7.30;;;19.20;64.60;;;;;;5013420;28;20508;-82
2023/05/03 12:23:09;;;;;;;6.93;6.43;;;19.20;63.40;;;;;;5014167;28;20410;-81
2023/05/03 12:25:36;;;;;;;7.10;6.70;;;19.20;68.10;;;;;;5013915;28;20398;-82
2023/05/03 12:28:03;;;;;;;6.60;6.20;;;19.20;67.00;;;;;;5004443;28;20413;-81
2023/05/03 12:30:29;;;;;;;7.37;6.50;;;19.20;67.60;;;;;;4993352;28;20417;-80
2023/05/03 12:32:55;;;;;;;7.97;7.20;;;19.30;66.60;;;;;;4978791;28;20423;-81
2023/05/03 12:35:22;;;;;;;12.50;9.23;;;19.30;64.20;;;;;;5009022;28;20861;-81
2023/05/03 12:37:49;;;;;;;8.53;7.93;;;19.20;64.10;;;;;;5008540;28;20433;-81
2023/05/03 12:40:17;;;;;;;9.20;8.70;;;19.20;65.60;;;;;;4993063;28;20914;-80
2023/05/03 12:42:43;;;;;;;8.50;7.90;;;19.20;66.50;;;;;;4993844;28;20450;-80
2023/05/03 12:45:10;;;;;;;8.30;7.80;;;19.30;65.50;;;;;;4994254;28;20415;-81
2023/05/03 12:47:36;;;;;;;9.30;8.60;;;19.40;65.60;;;;;;4993902;28;20238;-81
2023/05/03 12:50:05;;;;;;;8.33;7.13;;;19.40;63.30;;;;;;4993600;28;20489;-82